createdAt,value
2018-01-26T00:00:06.514Z,1006.1
2018-01-26T00:01:09.300Z,1006.2
2018-01-26T00:02:11.786Z,1006.2
2018-01-26T00:03:14.285Z,1006.2
2018-01-26T00:04:16.790Z,1006.2
2018-01-26T00:05:19.567Z,1006.2
2018-01-26T00:06:22.066Z,1006.2
2018-01-26T00:07:24.552Z,1006.2
2018-01-26T00:08:27.045Z,1006.2
2018-01-26T00:09:29.561Z,1006.2
2018-01-26T00:10:32.625Z,1006.2
2018-01-26T00:11:35.116Z,1006.2
2018-01-26T00:12:37.616Z,1006.1
2018-01-26T00:13:40.103Z,1006.1
2018-01-26T00:14:42.619Z,1006.1
2018-01-26T00:15:45.118Z,1006.1
2018-01-26T00:16:47.885Z,1006.1
2018-01-26T00:17:50.389Z,1006.1
2018-01-26T00:18:52.883Z,1006.1
2018-01-26T00:19:55.379Z,1006.1
2018-01-26T00:20:57.873Z,1006.1
2018-01-26T00:22:00.351Z,1006
2018-01-26T00:23:03.135Z,1006
2018-01-26T00:24:05.642Z,1006.1
2018-01-26T00:25:08.123Z,1006.1
2018-01-26T00:26:10.619Z,1006.1
2018-01-26T00:27:13.411Z,1006
2018-01-26T00:28:16.203Z,1006
2018-01-26T00:29:18.695Z,1006
2018-01-26T00:30:21.194Z,1006
2018-01-26T00:31:23.693Z,1006
2018-01-26T00:32:26.183Z,1006
2018-01-26T00:33:28.680Z,1006.1
2018-01-26T00:34:31.182Z,1006
2018-01-26T00:35:33.663Z,1006
2018-01-26T00:36:36.164Z,1006
2018-01-26T00:37:38.660Z,1006
2018-01-26T00:38:41.451Z,1006.1
2018-01-26T00:39:44.243Z,1006.1
2018-01-26T00:40:46.729Z,1006.2
2018-01-26T00:41:49.218Z,1006.1
2018-01-26T00:42:51.722Z,1006.1
2018-01-26T00:43:54.213Z,1006.1
2018-01-26T00:44:57.007Z,1006.2
2018-01-26T00:45:59.796Z,1006.2
2018-01-26T00:47:02.579Z,1006.2
2018-01-26T00:48:05.074Z,1006.2
2018-01-26T00:49:07.868Z,1006.2
2018-01-26T00:50:10.359Z,1006.1
2018-01-26T00:51:13.133Z,1006.2
2018-01-26T00:52:15.631Z,1006.1
2018-01-26T00:53:18.410Z,1006.1
2018-01-26T00:54:20.897Z,1006.1
2018-01-26T00:55:23.401Z,1006.1
2018-01-26T00:56:25.901Z,1006.1
2018-01-26T00:57:28.388Z,1006.1
2018-01-26T00:58:30.884Z,1006.1
2018-01-26T00:59:33.382Z,1006.1
2018-01-26T01:00:35.873Z,1006.1
2018-01-26T01:01:38.363Z,1006.1
2018-01-26T01:02:40.859Z,1006.1
2018-01-26T01:03:43.354Z,1006.1
2018-01-26T01:04:45.848Z,1006.2
2018-01-26T01:05:48.348Z,1006.1
2018-01-26T01:06:50.835Z,1006.2
2018-01-26T01:07:53.340Z,1006.1
2018-01-26T01:08:55.831Z,1006.2
2018-01-26T01:09:58.331Z,1006.2
2018-01-26T01:11:00.825Z,1006.2
2018-01-26T01:12:03.313Z,1006.2
2018-01-26T01:13:05.799Z,1006.2
2018-01-26T01:14:08.315Z,1006.2
2018-01-26T01:15:10.850Z,1006.2
2018-01-26T01:16:13.298Z,1006.2
2018-01-26T01:17:15.800Z,1006.2
2018-01-26T01:18:18.294Z,1006.2
2018-01-26T01:19:21.098Z,1006.1
2018-01-26T01:20:23.597Z,1006.2
2018-01-26T01:21:26.084Z,1006.2
2018-01-26T01:22:28.584Z,1006.2
2018-01-26T01:23:31.072Z,1006.2
2018-01-26T01:24:33.862Z,1006.2
2018-01-26T01:25:36.350Z,1006.2
2018-01-26T01:26:38.862Z,1006.2
2018-01-26T01:27:41.360Z,1006.3
2018-01-26T01:28:43.854Z,1006.2
2018-01-26T01:29:46.350Z,1006.3
2018-01-26T01:30:49.142Z,1006.3
2018-01-26T01:31:51.621Z,1006.3
2018-01-26T01:32:54.429Z,1006.2
2018-01-26T01:33:56.919Z,1006.2
2018-01-26T01:34:59.408Z,1006.3
2018-01-26T01:36:02.194Z,1006.2
2018-01-26T01:37:05.005Z,1006.2
2018-01-26T01:38:07.497Z,1006.2
2018-01-26T01:39:10.007Z,1006.2
2018-01-26T01:40:12.489Z,1006.2
2018-01-26T01:41:14.986Z,1006.3
2018-01-26T01:42:17.783Z,1006.2
2018-01-26T01:43:20.279Z,1006.3
2018-01-26T01:44:22.785Z,1006.2
2018-01-26T01:45:25.292Z,1006.3
2018-01-26T01:46:27.777Z,1006.3
2018-01-26T01:47:30.283Z,1006.3
2018-01-26T01:48:32.776Z,1006.3
2018-01-26T01:49:35.265Z,1006.3
2018-01-26T01:50:37.765Z,1006.3
2018-01-26T01:51:40.547Z,1006.4
2018-01-26T01:52:43.035Z,1006.4
2018-01-26T01:53:45.827Z,1006.4
2018-01-26T01:54:48.319Z,1006.4
2018-01-26T01:55:50.812Z,1006.3
2018-01-26T01:56:53.325Z,1006.3
2018-01-26T01:57:55.823Z,1006.3
2018-01-26T01:58:58.304Z,1006.3
2018-01-26T02:00:00.806Z,1006.3
2018-01-26T02:01:03.301Z,1006.3
2018-01-26T02:02:06.090Z,1006.2
2018-01-26T02:03:08.583Z,1006.2
2018-01-26T02:04:11.070Z,1006.3
2018-01-26T02:05:13.566Z,1006.2
2018-01-26T02:06:16.072Z,1006.2
2018-01-26T02:07:18.566Z,1006.2
2018-01-26T02:08:21.054Z,1006.2
2018-01-26T02:09:23.552Z,1006.2
2018-01-26T02:10:26.046Z,1006.2
2018-01-26T02:11:28.862Z,1006.3
2018-01-26T02:12:31.359Z,1006.3
2018-01-26T02:13:33.845Z,1006.3
2018-01-26T02:14:36.341Z,1006.3
2018-01-26T02:15:39.411Z,1006.3
2018-01-26T02:16:41.905Z,1006.3
2018-01-26T02:17:44.709Z,1006.2
2018-01-26T02:18:47.197Z,1006.2
2018-01-26T02:19:49.688Z,1006.3
2018-01-26T02:20:52.204Z,1006.3
2018-01-26T02:21:54.989Z,1006.3
2018-01-26T02:22:57.485Z,1006.3
2018-01-26T02:23:59.975Z,1006.3
2018-01-26T02:25:02.490Z,1006.3
2018-01-26T02:26:04.971Z,1006.3
2018-01-26T02:27:07.466Z,1006.3
2018-01-26T02:28:09.963Z,1006.3
2018-01-26T02:29:12.466Z,1006.3
2018-01-26T02:30:14.941Z,1006.3
2018-01-26T02:31:17.462Z,1006.3
2018-01-26T02:32:19.949Z,1006.4
2018-01-26T02:33:22.498Z,1006.3
2018-01-26T02:34:25.250Z,1006.3
2018-01-26T02:35:27.740Z,1006.3
2018-01-26T02:36:30.238Z,1006.3
2018-01-26T02:37:33.034Z,1006.3
2018-01-26T02:38:35.517Z,1006.3
2018-01-26T02:39:38.313Z,1006.3
2018-01-26T02:40:40.808Z,1006.3
2018-01-26T02:41:43.295Z,1006.3
2018-01-26T02:42:45.792Z,1006.3
2018-01-26T02:43:48.298Z,1006.4
2018-01-26T02:44:50.779Z,1006.3
2018-01-26T02:45:53.285Z,1006.3
2018-01-26T02:46:55.777Z,1006.3
2018-01-26T02:47:58.278Z,1006.3
2018-01-26T02:49:00.772Z,1006.3
2018-01-26T02:50:03.269Z,1006.3
2018-01-26T02:51:06.060Z,1006.3
2018-01-26T02:52:08.845Z,1006.2
2018-01-26T02:53:11.335Z,1006.2
2018-01-26T02:54:13.819Z,1006.3
2018-01-26T02:55:16.899Z,1006.2
2018-01-26T02:56:19.749Z,1006.3
2018-01-26T02:57:22.236Z,1006.2
2018-01-26T02:58:24.736Z,1006.3
2018-01-26T02:59:27.518Z,1006.2
2018-01-26T03:00:30.024Z,1006.3
2018-01-26T03:01:32.527Z,1006.3
2018-01-26T03:02:35.025Z,1006.3
2018-01-26T03:03:37.509Z,1006.3
2018-01-26T03:04:40.009Z,1006.3
2018-01-26T03:05:42.501Z,1006.3
2018-01-26T03:06:45.003Z,1006.3
2018-01-26T03:07:47.490Z,1006.3
2018-01-26T03:08:49.974Z,1006.3
2018-01-26T03:09:52.519Z,1006.3
2018-01-26T03:10:54.980Z,1006.4
2018-01-26T03:11:57.467Z,1006.3
2018-01-26T03:13:00.256Z,1006.4
2018-01-26T03:14:02.763Z,1006.4
2018-01-26T03:15:05.604Z,1006.5
2018-01-26T03:16:08.390Z,1006.4
2018-01-26T03:17:11.180Z,1006.5
2018-01-26T03:18:13.654Z,1006.5
2018-01-26T03:19:16.160Z,1006.5
2018-01-26T03:20:18.656Z,1006.5
2018-01-26T03:21:21.149Z,1006.5
2018-01-26T03:22:23.648Z,1006.5
2018-01-26T03:23:26.141Z,1006.5
2018-01-26T03:24:28.634Z,1006.6
2018-01-26T03:25:31.132Z,1006.6
2018-01-26T03:26:33.626Z,1006.5
2018-01-26T03:27:36.134Z,1006.6
2018-01-26T03:28:38.937Z,1006.6
2018-01-26T03:29:41.432Z,1006.6
2018-01-26T03:30:44.242Z,1006.6
2018-01-26T03:31:46.730Z,1006.6
2018-01-26T03:32:49.232Z,1006.6
2018-01-26T03:33:51.725Z,1006.6
2018-01-26T03:34:54.216Z,1006.6
2018-01-26T03:35:57.031Z,1006.6
2018-01-26T03:36:59.517Z,1006.6
2018-01-26T03:38:02.012Z,1006.6
2018-01-26T03:39:04.514Z,1006.6
2018-01-26T03:40:07.009Z,1006.6
2018-01-26T03:41:09.783Z,1006.6
2018-01-26T03:42:12.281Z,1006.7
2018-01-26T03:43:14.768Z,1006.7
2018-01-26T03:44:17.264Z,1006.7
2018-01-26T03:45:19.768Z,1006.7
2018-01-26T03:46:22.259Z,1006.7
2018-01-26T03:47:24.761Z,1006.8
2018-01-26T03:48:27.256Z,1006.8
2018-01-26T03:49:29.749Z,1006.8
2018-01-26T03:50:32.253Z,1006.8
2018-01-26T03:51:35.319Z,1006.8
2018-01-26T03:52:37.826Z,1006.8
2018-01-26T03:53:40.596Z,1006.8
2018-01-26T03:54:43.096Z,1006.8
2018-01-26T03:55:45.590Z,1006.8
2018-01-26T03:56:48.090Z,1006.8
2018-01-26T03:57:50.589Z,1006.8
2018-01-26T03:58:53.085Z,1006.9
2018-01-26T03:59:56.134Z,1006.9
2018-01-26T04:00:58.641Z,1006.8
2018-01-26T04:02:01.466Z,1006.9
2018-01-26T04:03:03.954Z,1006.8
2018-01-26T04:04:06.451Z,1006.9
2018-01-26T04:05:08.949Z,1006.9
2018-01-26T04:06:11.441Z,1006.9
2018-01-26T04:07:13.949Z,1006.9
2018-01-26T04:08:16.441Z,1006.9
2018-01-26T04:09:18.933Z,1006.9
2018-01-26T04:10:21.445Z,1006.9
2018-01-26T04:11:23.937Z,1006.9
2018-01-26T04:12:26.433Z,1006.9
2018-01-26T04:13:28.920Z,1007
2018-01-26T04:14:31.419Z,1006.9
2018-01-26T04:15:33.912Z,1006.9
2018-01-26T04:16:36.413Z,1007
2018-01-26T04:17:38.897Z,1006.9
2018-01-26T04:18:41.398Z,1006.9
2018-01-26T04:19:44.183Z,1006.9
2018-01-26T04:20:46.683Z,1006.9
2018-01-26T04:21:49.184Z,1006.9
2018-01-26T04:22:51.675Z,1006.9
2018-01-26T04:23:54.177Z,1006.9
2018-01-26T04:24:56.657Z,1007
2018-01-26T04:25:59.441Z,1007
2018-01-26T04:27:01.952Z,1007
2018-01-26T04:28:04.444Z,1007
2018-01-26T04:29:06.938Z,1007
2018-01-26T04:30:09.432Z,1007.1
2018-01-26T04:31:11.925Z,1007
2018-01-26T04:32:14.431Z,1007
2018-01-26T04:33:17.502Z,1007
2018-01-26T04:34:20.273Z,1007
2018-01-26T04:35:22.780Z,1007
2018-01-26T04:36:25.278Z,1007
2018-01-26T04:37:27.770Z,1007
2018-01-26T04:38:30.276Z,1007
2018-01-26T04:39:32.770Z,1007
2018-01-26T04:40:35.270Z,1007
2018-01-26T04:41:37.769Z,1007
2018-01-26T04:42:40.265Z,1007
2018-01-26T04:43:42.765Z,1007
2018-01-26T04:44:45.268Z,1007
2018-01-26T04:45:47.760Z,1007
2018-01-26T04:46:50.270Z,1007
2018-01-26T04:47:52.763Z,1007
2018-01-26T04:48:55.257Z,1007
2018-01-26T04:49:57.747Z,1007
2018-01-26T04:51:00.538Z,1007
2018-01-26T04:52:03.040Z,1007
2018-01-26T04:53:05.532Z,1007
2018-01-26T04:54:08.023Z,1007
2018-01-26T04:55:10.512Z,1007
2018-01-26T04:56:13.002Z,1007
2018-01-26T04:57:15.490Z,1007
2018-01-26T04:58:18.299Z,1007
2018-01-26T04:59:20.789Z,1007
2018-01-26T05:00:23.279Z,1007
2018-01-26T05:01:25.788Z,1007.1
2018-01-26T05:02:28.280Z,1007
2018-01-26T05:03:30.779Z,1007.1
2018-01-26T05:04:33.561Z,1007.2
2018-01-26T05:05:36.052Z,1007.2
2018-01-26T05:06:38.554Z,1007.2
2018-01-26T05:07:41.060Z,1007.3
2018-01-26T05:08:43.546Z,1007.3
2018-01-26T05:09:46.059Z,1007.3
2018-01-26T05:10:48.554Z,1007.3
2018-01-26T05:11:51.045Z,1007.2
2018-01-26T05:12:53.548Z,1007.2
2018-01-26T05:13:56.037Z,1007.2
2018-01-26T05:14:58.534Z,1007.3
2018-01-26T05:16:01.032Z,1007.2
2018-01-26T05:17:03.511Z,1007.2
2018-01-26T05:18:06.009Z,1007.2
2018-01-26T05:19:08.521Z,1007.2
2018-01-26T05:20:11.005Z,1007.1
2018-01-26T05:21:13.502Z,1007.2
2018-01-26T05:22:16.289Z,1007.2
2018-01-26T05:23:18.786Z,1007.1
2018-01-26T05:24:21.277Z,1007.2
2018-01-26T05:25:23.769Z,1007.2
2018-01-26T05:26:26.270Z,1007.2
2018-01-26T05:27:28.760Z,1007.2
2018-01-26T05:28:31.557Z,1007.2
2018-01-26T05:29:34.048Z,1007.2
2018-01-26T05:30:36.543Z,1007.2
2018-01-26T05:31:39.040Z,1007.3
2018-01-26T05:32:41.546Z,1007.3
2018-01-26T05:33:44.034Z,1007.3
2018-01-26T05:34:46.533Z,1007.3
2018-01-26T05:35:49.037Z,1007.3
2018-01-26T05:36:51.534Z,1007.3
2018-01-26T05:37:54.036Z,1007.3
2018-01-26T05:38:56.529Z,1007.3
2018-01-26T05:39:59.023Z,1007.3
2018-01-26T05:41:01.532Z,1007.3
2018-01-26T05:42:04.027Z,1007.3
2018-01-26T05:43:06.512Z,1007.3
2018-01-26T05:44:09.014Z,1007.3
2018-01-26T05:45:11.504Z,1007.3
2018-01-26T05:46:13.998Z,1007.3
2018-01-26T05:47:16.496Z,1007.3
2018-01-26T05:48:18.991Z,1007.3
2018-01-26T05:49:21.483Z,1007.3
2018-01-26T05:50:23.996Z,1007.2
2018-01-26T05:51:26.482Z,1007.2
2018-01-26T05:52:28.982Z,1007.2
2018-01-26T05:53:31.477Z,1007.3
2018-01-26T05:54:34.537Z,1007.2
2018-01-26T05:55:37.052Z,1007.3
2018-01-26T05:56:39.540Z,1007.3
2018-01-26T05:57:42.330Z,1007.4
2018-01-26T05:58:44.834Z,1007.3
2018-01-26T05:59:47.320Z,1007.3
2018-01-26T06:00:49.823Z,1007.3
2018-01-26T06:01:52.313Z,1007.3
2018-01-26T06:02:54.799Z,1007.3
2018-01-26T06:03:57.298Z,1007.3
2018-01-26T06:04:59.795Z,1007.3
2018-01-26T06:06:02.285Z,1007.3
2018-01-26T06:07:04.802Z,1007.3
2018-01-26T06:08:07.297Z,1007.3
2018-01-26T06:09:09.781Z,1007.3
2018-01-26T06:10:12.283Z,1007.3
2018-01-26T06:11:14.774Z,1007.3
2018-01-26T06:12:17.278Z,1007.4
2018-01-26T06:13:19.776Z,1007.4
2018-01-26T06:14:22.265Z,1007.4
2018-01-26T06:15:24.758Z,1007.4
2018-01-26T06:16:27.266Z,1007.4
2018-01-26T06:17:29.762Z,1007.4
2018-01-26T06:18:32.243Z,1007.4
2018-01-26T06:19:34.737Z,1007.4
2018-01-26T06:20:37.239Z,1007.5
2018-01-26T06:21:39.721Z,1007.4
2018-01-26T06:22:42.220Z,1007.5
2018-01-26T06:23:44.729Z,1007.5
2018-01-26T06:24:47.218Z,1007.5
2018-01-26T06:25:49.715Z,1007.5
2018-01-26T06:26:52.212Z,1007.5
2018-01-26T06:27:54.709Z,1007.5
2018-01-26T06:28:57.209Z,1007.5
2018-01-26T06:29:59.707Z,1007.5
2018-01-26T06:31:02.181Z,1007.6
2018-01-26T06:32:04.681Z,1007.6
2018-01-26T06:33:07.472Z,1007.6
2018-01-26T06:34:09.960Z,1007.6
2018-01-26T06:35:12.461Z,1007.6
2018-01-26T06:36:14.957Z,1007.6
2018-01-26T06:37:17.455Z,1007.6
2018-01-26T06:38:19.952Z,1007.6
2018-01-26T06:39:22.449Z,1007.6
2018-01-26T06:40:24.941Z,1007.5
2018-01-26T06:41:27.430Z,1007.6
2018-01-26T06:42:29.932Z,1007.5
2018-01-26T06:43:32.422Z,1007.6
2018-01-26T06:44:34.919Z,1007.6
2018-01-26T06:45:37.414Z,1007.6
2018-01-26T06:46:39.912Z,1007.6
2018-01-26T06:47:42.402Z,1007.6
2018-01-26T06:48:44.912Z,1007.6
2018-01-26T06:49:47.401Z,1007.7
2018-01-26T06:50:49.902Z,1007.7
2018-01-26T06:51:52.413Z,1007.7
2018-01-26T06:52:54.905Z,1007.7
2018-01-26T06:53:57.398Z,1007.7
2018-01-26T06:54:59.908Z,1007.8
2018-01-26T06:56:02.406Z,1007.7
2018-01-26T06:57:04.894Z,1007.7
2018-01-26T06:58:07.398Z,1007.7
2018-01-26T06:59:09.885Z,1007.7
2018-01-26T07:00:12.383Z,1007.7
2018-01-26T07:01:14.880Z,1007.7
2018-01-26T07:02:17.367Z,1007.7
2018-01-26T07:03:19.853Z,1007.8
2018-01-26T07:04:22.367Z,1007.8
2018-01-26T07:05:24.844Z,1007.8
2018-01-26T07:06:27.357Z,1007.8
2018-01-26T07:07:29.843Z,1007.9
2018-01-26T07:08:32.346Z,1007.9
2018-01-26T07:09:34.840Z,1007.9
2018-01-26T07:10:37.339Z,1008
2018-01-26T07:11:39.836Z,1008
2018-01-26T07:12:42.342Z,1008
2018-01-26T07:13:44.823Z,1008
2018-01-26T07:14:47.325Z,1008
2018-01-26T07:15:49.823Z,1008
2018-01-26T07:16:52.318Z,1008
2018-01-26T07:17:54.813Z,1008.1
2018-01-26T07:18:57.317Z,1008.1
2018-01-26T07:19:59.812Z,1008
2018-01-26T07:21:02.613Z,1008
2018-01-26T07:22:05.106Z,1008
2018-01-26T07:23:07.610Z,1008
2018-01-26T07:24:10.102Z,1008
2018-01-26T07:25:12.605Z,1008.1
2018-01-26T07:26:15.098Z,1008
2018-01-26T07:27:17.593Z,1008.1
2018-01-26T07:28:20.088Z,1008.1
2018-01-26T07:29:22.592Z,1008
2018-01-26T07:30:25.080Z,1008
2018-01-26T07:31:27.930Z,1008
2018-01-26T07:32:30.391Z,1008.1
2018-01-26T07:33:32.887Z,1008.1
2018-01-26T07:34:35.383Z,1008
2018-01-26T07:35:37.885Z,1008
2018-01-26T07:36:40.416Z,1008.1
2018-01-26T07:37:42.887Z,1008
2018-01-26T07:38:45.386Z,1008
2018-01-26T07:39:47.869Z,1008
2018-01-26T07:40:50.386Z,1008
2018-01-26T07:41:53.182Z,1008
2018-01-26T07:42:55.963Z,1008
2018-01-26T07:43:58.459Z,1008.1
2018-01-26T07:45:01.249Z,1008.2
2018-01-26T07:46:03.749Z,1008.2
2018-01-26T07:47:06.256Z,1008.2
2018-01-26T07:48:08.753Z,1008.2
2018-01-26T07:49:11.240Z,1008.2
2018-01-26T07:50:14.026Z,1008.2
2018-01-26T07:51:16.522Z,1008.2
2018-01-26T07:52:19.301Z,1008.3
2018-01-26T07:53:21.792Z,1008.3
2018-01-26T07:54:24.307Z,1008.3
2018-01-26T07:55:26.800Z,1008.3
2018-01-26T07:56:29.582Z,1008.2
2018-01-26T07:57:32.081Z,1008.2
2018-01-26T07:58:34.580Z,1008.2
2018-01-26T07:59:37.368Z,1008.2
2018-01-26T08:00:39.863Z,1008.2
2018-01-26T08:01:42.347Z,1008.2
2018-01-26T08:02:44.848Z,1008.2
2018-01-26T08:03:47.379Z,1008.2
2018-01-26T08:04:49.827Z,1008.2
2018-01-26T08:05:52.335Z,1008.2
2018-01-26T08:06:54.830Z,1008.2
2018-01-26T08:07:57.324Z,1008.2
2018-01-26T08:08:59.817Z,1008.3
2018-01-26T08:10:02.609Z,1008.3
2018-01-26T08:11:05.119Z,1008.4
2018-01-26T08:12:07.912Z,1008.4
2018-01-26T08:13:10.411Z,1008.4
2018-01-26T08:14:12.890Z,1008.5
2018-01-26T08:15:15.389Z,1008.5
2018-01-26T08:16:17.900Z,1008.6
2018-01-26T08:17:20.394Z,1008.6
2018-01-26T08:18:22.891Z,1008.6
2018-01-26T08:19:25.689Z,1008.6
2018-01-26T08:20:28.175Z,1008.6
2018-01-26T08:21:30.673Z,1008.6
2018-01-26T08:22:33.167Z,1008.6
2018-01-26T08:23:35.665Z,1008.6
2018-01-26T08:24:38.165Z,1008.6
2018-01-26T08:25:40.671Z,1008.6
2018-01-26T08:26:43.155Z,1008.6
2018-01-26T08:27:45.953Z,1008.6
2018-01-26T08:28:48.445Z,1008.6
2018-01-26T08:29:50.933Z,1008.5
2018-01-26T08:30:53.429Z,1008.6
2018-01-26T08:31:55.928Z,1008.6
2018-01-26T08:32:58.416Z,1008.6
2018-01-26T08:34:00.917Z,1008.7
2018-01-26T08:35:03.698Z,1008.7
2018-01-26T08:36:06.192Z,1008.7
2018-01-26T08:37:08.709Z,1008.7
2018-01-26T08:38:11.195Z,1008.7
2018-01-26T08:39:13.693Z,1008.7
2018-01-26T08:40:16.189Z,1008.6
2018-01-26T08:41:18.689Z,1008.7
2018-01-26T08:42:21.497Z,1008.7
2018-01-26T08:43:23.996Z,1008.7
2018-01-26T08:44:26.479Z,1008.7
2018-01-26T08:45:28.975Z,1008.7
2018-01-26T08:46:31.476Z,1008.7
2018-01-26T08:47:33.973Z,1008.8
2018-01-26T08:48:36.461Z,1008.8
2018-01-26T08:49:38.958Z,1008.8
2018-01-26T08:50:41.448Z,1008.8
2018-01-26T08:51:43.943Z,1008.8
2018-01-26T08:52:46.433Z,1008.9
2018-01-26T08:53:48.940Z,1008.9
2018-01-26T08:54:51.429Z,1008.9
2018-01-26T08:55:53.931Z,1008.9
2018-01-26T08:56:56.421Z,1008.9
2018-01-26T08:57:58.911Z,1008.9
2018-01-26T08:59:01.711Z,1008.9
2018-01-26T09:00:04.215Z,1008.9
2018-01-26T09:01:06.696Z,1008.9
2018-01-26T09:02:09.509Z,1008.9
2018-01-26T09:03:12.014Z,1009
2018-01-26T09:04:14.501Z,1009
2018-01-26T09:05:16.995Z,1009
2018-01-26T09:06:19.489Z,1009
2018-01-26T09:07:21.984Z,1009
2018-01-26T09:08:24.486Z,1009
2018-01-26T09:09:26.985Z,1009
2018-01-26T09:10:29.472Z,1009
2018-01-26T09:11:32.275Z,1009
2018-01-26T09:12:34.766Z,1009
2018-01-26T09:13:37.583Z,1009
2018-01-26T09:14:40.074Z,1009
2018-01-26T09:15:42.572Z,1009.1
2018-01-26T09:16:45.065Z,1009.1
2018-01-26T09:17:47.572Z,1009.1
2018-01-26T09:18:50.067Z,1009.1
2018-01-26T09:19:52.561Z,1009.1
2018-01-26T09:20:55.062Z,1009.1
2018-01-26T09:21:57.566Z,1009.1
2018-01-26T09:23:00.061Z,1009.1
2018-01-26T09:24:02.551Z,1009.2
2018-01-26T09:25:05.075Z,1009.2
2018-01-26T09:26:07.554Z,1009.2
2018-01-26T09:27:10.048Z,1009.2
2018-01-26T09:28:12.555Z,1009.2
2018-01-26T09:29:15.329Z,1009.2
2018-01-26T09:30:17.830Z,1009.3
2018-01-26T09:31:20.329Z,1009.2
2018-01-26T09:32:22.817Z,1009.2
2018-01-26T09:33:25.322Z,1009.3
2018-01-26T09:34:27.818Z,1009.3
2018-01-26T09:35:30.306Z,1009.3
2018-01-26T09:36:32.813Z,1009.3
2018-01-26T09:37:35.305Z,1009.4
2018-01-26T09:38:38.095Z,1009.4
2018-01-26T09:39:40.887Z,1009.5
2018-01-26T09:40:43.383Z,1009.5
2018-01-26T09:41:45.879Z,1009.5
2018-01-26T09:42:48.430Z,1009.5
2018-01-26T09:43:50.854Z,1009.6
2018-01-26T09:44:53.350Z,1009.6
2018-01-26T09:45:56.152Z,1009.6
2018-01-26T09:46:58.644Z,1009.6
2018-01-26T09:48:01.142Z,1009.6
2018-01-26T09:49:03.918Z,1009.6
2018-01-26T09:50:06.416Z,1009.7
2018-01-26T09:51:08.924Z,1009.7
2018-01-26T09:52:11.412Z,1009.8
2018-01-26T09:53:13.909Z,1009.8
2018-01-26T09:54:16.406Z,1009.8
2018-01-26T09:55:19.480Z,1009.8
2018-01-26T09:56:21.978Z,1009.8
2018-01-26T09:57:24.477Z,1009.8
2018-01-26T09:58:26.955Z,1009.8
2018-01-26T09:59:29.457Z,1009.8
2018-01-26T10:00:31.958Z,1009.8
2018-01-26T10:01:34.453Z,1009.8
2018-01-26T10:02:36.955Z,1009.8
2018-01-26T10:03:39.450Z,1009.8
2018-01-26T10:04:41.952Z,1009.8
2018-01-26T10:05:44.445Z,1009.7
2018-01-26T10:06:46.942Z,1009.8
2018-01-26T10:07:49.433Z,1009.7
2018-01-26T10:08:52.519Z,1009.7
2018-01-26T10:09:55.333Z,1009.8
2018-01-26T10:10:57.829Z,1009.8
2018-01-26T10:12:00.328Z,1009.8
2018-01-26T10:13:02.822Z,1009.9
2018-01-26T10:14:05.335Z,1009.9
2018-01-26T10:15:07.887Z,1009.9
2018-01-26T10:16:10.392Z,1010
2018-01-26T10:17:12.877Z,1010
2018-01-26T10:18:15.366Z,1010.1
2018-01-26T10:19:18.451Z,1010.1
2018-01-26T10:20:21.230Z,1010.1
2018-01-26T10:21:24.011Z,1010
2018-01-26T10:22:26.510Z,1010
2018-01-26T10:23:29.282Z,1010
2018-01-26T10:24:31.782Z,1010
2018-01-26T10:25:34.284Z,1010.1
2018-01-26T10:26:36.773Z,1010.1
2018-01-26T10:27:39.277Z,1010
2018-01-26T10:28:42.082Z,1010
2018-01-26T10:29:44.642Z,1010
2018-01-26T10:30:47.534Z,1010.1
2018-01-26T10:31:50.113Z,1010.1
2018-01-26T10:32:52.735Z,1010.2
2018-01-26T10:33:55.741Z,1010.1
2018-01-26T10:34:58.698Z,1010.1
2018-01-26T10:36:01.334Z,1010.2
2018-01-26T10:37:03.847Z,1010.1
2018-01-26T10:38:06.552Z,1010.1
2018-01-26T10:39:09.023Z,1010
2018-01-26T10:40:11.526Z,1010
2018-01-26T10:41:14.018Z,1010
2018-01-26T10:42:17.090Z,1009.9
2018-01-26T10:43:19.603Z,1010
2018-01-26T10:44:22.099Z,1010
2018-01-26T10:45:24.589Z,1009.9
2018-01-26T10:46:27.673Z,1009.9
2018-01-26T10:47:30.167Z,1009.9
2018-01-26T10:48:32.664Z,1010
2018-01-26T10:49:35.158Z,1009.9
2018-01-26T10:50:37.667Z,1009.9
2018-01-26T10:51:40.166Z,1009.9
2018-01-26T10:52:42.661Z,1009.9
2018-01-26T10:53:45.166Z,1010
2018-01-26T10:54:47.954Z,1009.9
2018-01-26T10:55:50.447Z,1009.9
2018-01-26T10:56:53.245Z,1010
2018-01-26T10:57:56.017Z,1010
2018-01-26T10:58:58.516Z,1009.9
2018-01-26T11:00:01.026Z,1009.9
2018-01-26T11:01:03.819Z,1010
2018-01-26T11:02:06.328Z,1010
2018-01-26T11:03:08.827Z,1010
2018-01-26T11:04:11.325Z,1010
2018-01-26T11:05:13.833Z,1010
2018-01-26T11:06:16.339Z,1010
2018-01-26T11:07:18.816Z,1010
2018-01-26T11:08:21.607Z,1010
2018-01-26T11:09:24.119Z,1010
2018-01-26T11:10:26.611Z,1010
2018-01-26T11:11:29.402Z,1010
2018-01-26T11:12:31.888Z,1010
2018-01-26T11:13:34.679Z,1010
2018-01-26T11:14:37.478Z,1010
2018-01-26T11:15:40.288Z,1010.1
2018-01-26T11:16:43.070Z,1010.1
2018-01-26T11:17:45.567Z,1010.1
2018-01-26T11:18:48.067Z,1010.1
2018-01-26T11:19:50.565Z,1010.1
2018-01-26T11:20:53.061Z,1010.1
2018-01-26T11:21:55.574Z,1010.1
2018-01-26T11:22:58.075Z,1010.1
2018-01-26T11:24:00.562Z,1010.1
2018-01-26T11:25:03.075Z,1010.1
2018-01-26T11:26:05.577Z,1010.1
2018-01-26T11:27:08.372Z,1010.1
2018-01-26T11:28:10.871Z,1010.1
2018-01-26T11:29:13.361Z,1010.1
2018-01-26T11:30:15.855Z,1010
2018-01-26T11:31:18.669Z,1010.1
2018-01-26T11:32:21.148Z,1010.1
2018-01-26T11:33:23.972Z,1010.2
2018-01-26T11:34:26.462Z,1010.2
2018-01-26T11:35:28.968Z,1010.2
2018-01-26T11:36:31.465Z,1010.2
2018-01-26T11:37:33.967Z,1010.1
2018-01-26T11:38:36.758Z,1010.2
2018-01-26T11:39:39.556Z,1010.2
2018-01-26T11:40:42.042Z,1010.2
2018-01-26T11:41:44.548Z,1010.2
2018-01-26T11:42:47.051Z,1010.2
2018-01-26T11:43:49.552Z,1010.2
2018-01-26T11:44:52.046Z,1010.3
2018-01-26T11:45:54.552Z,1010.3
2018-01-26T11:46:57.052Z,1010.3
2018-01-26T11:47:59.557Z,1010.3
2018-01-26T11:49:02.050Z,1010.3
2018-01-26T11:50:04.849Z,1010.3
2018-01-26T11:51:07.343Z,1010.3
2018-01-26T11:52:09.835Z,1010.3
2018-01-26T11:53:12.335Z,1010.3
2018-01-26T11:54:14.831Z,1010.3
2018-01-26T11:55:17.334Z,1010.3
2018-01-26T11:56:19.844Z,1010.4
2018-01-26T11:57:22.326Z,1010.4
2018-01-26T11:58:24.826Z,1010.4
2018-01-26T11:59:27.628Z,1010.3
2018-01-26T12:00:30.124Z,1010.4
2018-01-26T12:01:32.619Z,1010.3
2018-01-26T12:02:35.125Z,1010.3
2018-01-26T12:03:37.610Z,1010.3
2018-01-26T12:04:40.121Z,1010.2
2018-01-26T12:05:42.620Z,1010.2
2018-01-26T12:06:45.115Z,1010.3
2018-01-26T12:07:47.621Z,1010.3
2018-01-26T12:08:50.120Z,1010.3
2018-01-26T12:09:52.621Z,1010.4
2018-01-26T12:10:55.429Z,1010.4
2018-01-26T12:11:57.921Z,1010.3
2018-01-26T12:13:00.419Z,1010.3
2018-01-26T12:14:02.939Z,1010.4
2018-01-26T12:15:05.521Z,1010.3
2018-01-26T12:16:08.307Z,1010.3
2018-01-26T12:17:10.817Z,1010.3
2018-01-26T12:18:13.322Z,1010.4
2018-01-26T12:19:16.102Z,1010.3
2018-01-26T12:20:18.605Z,1010.3
2018-01-26T12:21:21.113Z,1010.3
2018-01-26T12:22:23.615Z,1010.3
2018-01-26T12:23:26.145Z,1010.3
2018-01-26T12:24:28.607Z,1010.3
2018-01-26T12:25:31.102Z,1010.3
2018-01-26T12:26:33.602Z,1010.3
2018-01-26T12:27:36.106Z,1010.3
2018-01-26T12:28:38.609Z,1010.3
2018-01-26T12:29:41.100Z,1010.4
2018-01-26T12:30:43.619Z,1010.4
2018-01-26T12:31:46.108Z,1010.4
2018-01-26T12:32:48.609Z,1010.4
2018-01-26T12:33:51.399Z,1010.4
2018-01-26T12:34:53.898Z,1010.4
2018-01-26T12:35:56.406Z,1010.5
2018-01-26T12:36:58.911Z,1010.5
2018-01-26T12:38:01.394Z,1010.5
2018-01-26T12:39:03.913Z,1010.5
2018-01-26T12:40:06.402Z,1010.5
2018-01-26T12:41:08.903Z,1010.6
2018-01-26T12:42:11.408Z,1010.6
2018-01-26T12:43:13.908Z,1010.7
2018-01-26T12:44:16.406Z,1010.7
2018-01-26T12:45:18.926Z,1010.7
2018-01-26T12:46:22.003Z,1010.7
2018-01-26T12:47:24.490Z,1010.7
2018-01-26T12:48:26.981Z,1010.7
2018-01-26T12:49:29.491Z,1010.7
2018-01-26T12:50:31.988Z,1010.7
2018-01-26T12:51:34.480Z,1010.7
2018-01-26T12:52:37.276Z,1010.7
2018-01-26T12:53:40.064Z,1010.7
2018-01-26T12:54:42.573Z,1010.7
2018-01-26T12:55:45.075Z,1010.7
2018-01-26T12:56:47.557Z,1010.8
2018-01-26T12:57:50.061Z,1010.8
2018-01-26T12:58:52.554Z,1010.8
2018-01-26T12:59:55.057Z,1010.8
2018-01-26T13:00:57.563Z,1010.8
2018-01-26T13:02:00.039Z,1010.9
2018-01-26T13:03:02.537Z,1010.9
2018-01-26T13:04:05.051Z,1010.9
2018-01-26T13:05:07.547Z,1010.9
2018-01-26T13:06:10.048Z,1010.9
2018-01-26T13:07:12.546Z,1010.9